Time;durP1;ratioP1;P1;durP2;ratioP2;P2;SDS_P1;SDS_P2;PMS_P1;PMS_P2;Temp;Humidity;BMP_temperature;BMP_pressure;BME280_temperature;BME280_humidity;BME280_pressure;Samples;Min_cycle;Max_cycle;Signal;HPM_P1;HPM_P2
2022/11/25 00:01:23;;;;;;;26.90;18.23;;;;;;;2.39;100.00;99383.61;1806243;79;20932;-79
2022/11/25 00:03:51;;;;;;;21.37;14.07;;;;;;;2.35;100.00;99391.14;1825141;78;20978;-79
2022/11/25 00:06:33;;;;;;;26.85;17.00;;;;;;;2.38;100.00;99390.75;1813109;77;21480;-78
2022/11/25 00:09:04;;;;;;;24.77;17.37;;;;;;;2.34;100.00;99389.53;1830520;77;20877;-80
2022/11/25 00:11:30;;;;;;;24.95;17.10;;;;;;;2.30;100.00;99385.66;1835422;77;20917;-76
2022/11/25 00:13:58;;;;;;;28.67;18.70;;;;;;;2.17;100.00;99392.26;1787125;78;21369;-75
2022/11/25 00:16:27;;;;;;;23.02;16.93;;;;;;;2.17;100.00;99392.26;1807746;78;21048;-74
2022/11/25 00:18:55;;;;;;;22.40;16.40;;;;;;;2.19;100.00;99398.19;1802456;79;21271;-74
2022/11/25 00:21:25;;;;;;;25.88;17.70;;;;;;;2.26;100.00;99403.48;1757824;78;21506;-76
2022/11/25 00:23:55;;;;;;;24.20;16.20;;;;;;;2.23;100.00;99397.27;1813321;79;20995;-75
2022/11/25 00:26:23;;;;;;;26.45;19.00;;;;;;;2.17;100.00;99396.23;1850980;77;20975;-75
2022/11/25 00:28:49;;;;;;;24.67;17.27;;;;;;;2.14;100.00;99401.95;1807469;78;21654;-74
2022/11/25 00:31:22;;;;;;;24.70;19.45;;;;;;;2.08;100.00;99394.30;1817230;79;21761;-77
2022/11/25 00:33:50;;;;;;;20.48;15.58;;;;;;;2.08;100.00;99394.30;1816752;79;21016;-74
2022/11/25 00:36:23;;;;;;;24.10;17.62;;;;;;;2.11;100.00;99403.70;1806548;77;20911;-76
2022/11/25 00:38:55;;;;;;;;;;;;;;;2.11;100.00;99397.86;1809241;78;21012;-80
2022/11/25 00:46:56;;;;;;;29.50;19.85;;;;;;;2.08;100.00;99402.77;1817082;78;21231;-78
2022/11/25 00:49:23;;;;;;;24.12;16.57;;;;;;;2.09;100.00;99397.77;1828027;77;21005;-78
2022/11/25 00:51:50;;;;;;;28.07;18.45;;;;;;;2.04;100.00;99398.37;1816403;77;20950;-76
2022/11/25 00:54:16;;;;;;;27.90;17.80;;;;;;;2.04;100.00;99398.37;1797050;78;21030;-75
2022/11/25 00:56:43;;;;;;;22.42;17.42;;;;;;;2.05;100.00;99402.67;1809607;78;21735;-77
2022/11/25 00:59:09;;;;;;;26.95;17.57;;;;;;;2.09;100.00;99403.08;1778806;79;21056;-75
2022/11/25 01:01:38;;;;;;;23.30;17.70;;;;;;;2.07;100.00;99403.27;1811180;79;21046;-77
2022/11/25 01:04:05;;;;;;;23.70;14.80;;;;;;;2.04;100.00;99395.73;1811045;79;20964;-76
2022/11/25 01:06:34;;;;;;;24.65;17.15;;;;;;;2.12;100.00;99400.01;1812078;78;20994;-76
2022/11/25 01:09:02;;;;;;;28.07;17.62;;;;;;;2.11;100.00;99399.72;1777203;79;21054;-81
2022/11/25 01:11:29;;;;;;;24.55;16.75;;;;;;;2.12;100.00;99403.98;1808531;79;21002;-81
2022/11/25 01:13:57;;;;;;;25.32;17.30;;;;;;;2.10;100.00;99402.88;1810454;79;20960;-74
2022/11/25 01:16:24;;;;;;;31.23;19.07;;;;;;;2.11;100.00;99411.66;1792956;77;21966;-74
2022/11/25 01:18:51;;;;;;;29.85;19.45;;;;;;;2.05;100.00;99410.62;1765268;78;21031;-73
2022/11/25 01:21:24;;;;;;;25.25;17.05;;;;;;;2.02;100.00;99408.36;1808118;77;21559;-73
2022/11/25 01:23:51;;;;;;;27.17;17.87;;;;;;;1.94;100.00;99409.88;1784907;78;21067;-74
2022/11/25 01:26:20;;;;;;;23.22;16.87;;;;;;;1.87;100.00;99414.34;1785455;79;20932;-74
2022/11/25 01:28:47;;;;;;;22.00;16.23;;;;;;;1.79;100.00;99414.53;1793768;78;21531;-73
2022/11/25 01:31:17;;;;;;;20.80;14.53;;;;;;;1.79;100.00;99413.71;1806753;79;20957;-79
2022/11/25 01:33:44;;;;;;;19.52;13.88;;;;;;;1.78;100.00;99420.84;1800043;77;21910;-83
2022/11/25 01:36:16;;;;;;;23.42;16.02;;;;;;;1.78;100.00;99416.05;1798211;79;20911;-71
2022/11/25 01:38:43;;;;;;;22.73;15.68;;;;;;;1.79;100.00;99412.39;1806569;78;20964;-72
2022/11/25 01:41:13;;;;;;;20.85;15.60;;;;;;;1.85;100.00;99413.73;1805887;79;21031;-74
2022/11/25 01:43:40;;;;;;;21.97;14.53;;;;;;;1.92;100.00;99413.23;1811281;78;21057;-69
2022/11/25 01:46:26;;;;;;;20.80;14.80;;;;;;;1.96;100.00;99413.67;1807526;79;21211;-70
2022/11/25 01:49:02;;;;;;;20.25;14.75;;;;;;;1.92;100.00;99413.77;1798844;79;20908;-76
2022/11/25 01:51:49;;;;;;;24.40;16.42;;;;;;;1.89;100.00;99420.27;1824178;78;20947;-72
2022/11/25 01:54:19;;;;;;;20.75;13.90;;;;;;;1.84;100.00;99420.56;1791474;78;21510;-76
2022/11/25 01:56:58;;;;;;;22.00;15.72;;;;;;;1.85;100.00;99420.38;1820948;78;21069;-77
2022/11/25 01:59:26;;;;;;;18.48;13.68;;;;;;;1.88;100.00;99423.11;1816247;78;21532;-84
2022/11/25 02:01:53;;;;;;;19.20;12.40;;;;;;;1.92;100.00;99419.07;1818667;78;20928;-84
2022/11/25 02:04:21;;;;;;;22.65;14.25;;;;;;;1.95;100.00;99422.64;1810586;78;21546;-83
2022/11/25 02:06:54;;;;;;;23.42;16.50;;;;;;;1.89;100.00;99422.10;1825878;78;21534;-82
2022/11/25 02:09:21;;;;;;;19.98;16.07;;;;;;;1.85;100.00;99428.83;1778773;79;20946;-78
2022/11/25 02:11:47;;;;;;;18.85;14.70;;;;;;;1.91;100.00;99422.23;1801795;77;21068;-79
2022/11/25 02:14:14;;;;;;;16.82;11.45;;;;;;;1.98;100.00;99428.85;1846693;77;21042;-80
2022/11/25 02:16:41;;;;;;;17.95;12.43;;;;;;;2.03;100.00;99424.58;1815506;77;20992;-76
2022/11/25 02:19:26;;;;;;;22.73;15.53;;;;;;;2.07;100.00;99423.16;1804504;79;21016;-75
2022/11/25 02:21:56;;;;;;;24.07;18.62;;;;;;;2.04;100.00;99428.06;1782510;78;21075;-77
2022/11/25 02:24:28;;;;;;;20.70;14.55;;;;;;;1.90;100.00;99427.72;1809718;78;21009;-76
2022/11/25 02:26:55;;;;;;;18.60;15.48;;;;;;;1.80;100.00;99432.08;1805683;79;20920;-86
2022/11/25 02:29:22;;;;;;;19.52;14.47;;;;;;;1.80;100.00;99435.23;1815595;77;20998;-83
2022/11/25 02:31:50;;;;;;;18.57;13.22;;;;;;;1.79;100.00;99433.59;1805070;79;20975;-86
2022/11/25 02:34:20;;;;;;;16.32;12.68;;;;;;;1.80;100.00;99437.89;1843885;77;21094;-84
2022/11/25 02:36:48;;;;;;;18.82;13.10;;;;;;;1.76;100.00;99445.43;1821596;76;21598;-83
2022/11/25 02:39:14;;;;;;;19.95;13.90;;;;;;;1.79;100.00;99444.20;1808962;79;20931;-83
2022/11/25 02:41:50;;;;;;;16.90;12.50;;;;;;;1.84;100.00;99443.91;1805893;77;21004;-75
2022/11/25 02:44:18;;;;;;;20.50;15.40;;;;;;;1.85;100.00;99446.06;1815412;78;21510;-85
2022/11/25 02:46:45;;;;;;;17.82;12.20;;;;;;;1.83;100.00;99456.86;1808359;79;20976;-77
2022/11/25 02:49:11;;;;;;;16.95;11.97;;;;;;;1.88;100.00;99458.91;1812993;79;22195;-78
2022/11/25 02:51:42;;;;;;;17.40;12.35;;;;;;;1.89;100.00;99461.88;1812100;78;20951;-75
2022/11/25 02:54:10;;;;;;;17.52;13.93;;;;;;;1.79;100.00;99460.11;1775191;79;21003;-75
2022/11/25 02:56:39;;;;;;;16.10;12.07;;;;;;;1.78;100.00;99457.14;1807226;79;20932;-75
2022/11/25 02:59:06;;;;;;;17.05;11.93;;;;;;;1.86;100.00;99465.76;1809926;79;21066;-72
2022/11/25 03:01:34;;;;;;;19.27;13.80;;;;;;;1.96;100.00;99468.03;1811235;78;21941;-74
2022/11/25 03:04:00;;;;;;;17.12;12.75;;;;;;;1.88;100.00;99475.64;1811898;79;21057;-78
2022/11/25 03:06:28;;;;;;;19.00;14.13;;;;;;;1.88;100.00;99475.64;1810356;78;21047;-80
2022/11/25 03:08:55;;;;;;;20.17;14.98;;;;;;;1.86;100.00;99480.34;1810269;79;21016;-82
2022/11/25 03:12:17;;;;;;;19.27;13.35;;;;;;;1.86;100.00;99479.52;1822653;77;21013;-90
2022/11/25 03:13:54;;;;;;;16.32;11.73;;;;;;;1.87;100.00;99481.16;1814427;77;21210;-80
2022/11/25 03:16:20;;;;;;;16.12;11.93;;;;;;;1.97;100.00;99491.68;1826154;77;20969;-76
2022/11/25 03:18:47;;;;;;;19.50;15.05;;;;;;;2.01;100.00;99491.61;1804713;78;20969;-75
2022/11/25 03:21:15;;;;;;;41.98;16.42;;;;;;;2.00;100.00;99497.11;1804577;78;21523;-78
2022/11/25 03:23:41;;;;;;;16.85;11.70;;;;;;;1.93;100.00;99502.88;1811928;78;22184;-85
2022/11/25 03:26:07;;;;;;;19.87;13.03;;;;;;;1.90;100.00;99496.16;1778867;79;21099;-81
2022/11/25 03:28:35;;;;;;;15.85;11.15;;;;;;;1.90;100.00;99495.34;1810893;79;20972;-84
2022/11/25 03:31:01;;;;;;;17.70;12.78;;;;;;;1.97;100.00;99496.16;1811111;78;20960;-81
2022/11/25 03:33:28;;;;;;;19.80;13.45;;;;;;;1.95;100.00;99495.06;1783531;78;21009;-73
2022/11/25 03:35:56;;;;;;;18.32;12.73;;;;;;;1.93;100.00;99494.42;1815814;78;21027;-81
2022/11/25 03:38:27;;;;;;;19.57;12.73;;;;;;;1.82;100.00;99495.02;1823352;78;21006;-88
2022/11/25 03:40:54;;;;;;;16.23;12.35;;;;;;;1.73;100.00;99494.34;1783856;76;21088;-89
2022/11/25 03:43:21;;;;;;;17.55;11.48;;;;;;;1.77;100.00;99492.64;1718192;79;21049;-88
2022/11/25 03:45:49;;;;;;;21.50;12.85;;;;;;;1.84;100.00;99496.13;1768750;79;21085;-92
2022/11/25 03:48:19;;;;;;;16.23;11.65;;;;;;;1.81;100.00;99497.86;1770229;79;21009;-87
2022/11/25 03:50:48;;;;;;;17.07;12.13;;;;;;;1.75;100.00;99503.44;1737155;81;21107;-86
2022/11/25 03:53:14;;;;;;;17.02;13.62;;;;;;;1.74;100.00;99503.13;1811809;78;20997;-85
2022/11/25 03:55:41;;;;;;;15.00;11.10;;;;;;;1.76;100.00;99497.13;1780920;79;20979;-88
2022/11/25 03:58:08;;;;;;;18.57;11.97;;;;;;;1.78;100.00;99505.68;1822463;78;21548;-88
2022/11/25 04:00:35;;;;;;;17.87;11.88;;;;;;;1.67;100.00;99504.44;1772999;79;21106;-86
2022/11/25 04:03:01;;;;;;;16.97;11.40;;;;;;;1.64;100.00;99508.78;1780250;79;21306;-88
2022/11/25 04:05:30;;;;;;;18.00;12.65;;;;;;;1.63;100.00;99507.14;1811606;78;21520;-81
2022/11/25 04:07:58;;;;;;;19.87;13.90;;;;;;;1.73;100.00;99511.58;1812020;79;20937;-84
2022/11/25 04:10:24;;;;;;;18.82;12.40;;;;;;;1.77;100.00;99507.22;1813571;79;20999;-76
2022/11/25 04:12:53;;;;;;;17.90;12.45;;;;;;;1.83;100.00;99501.93;1812070;77;21098;-80
2022/11/25 04:15:24;;;;;;;18.20;13.18;;;;;;;1.88;100.00;99510.11;1804580;77;21431;-81
2022/11/25 04:17:52;;;;;;;16.85;12.13;;;;;;;1.91;100.00;99513.71;1801485;78;21024;-77
2022/11/25 04:20:19;;;;;;;18.02;13.75;;;;;;;1.96;100.00;99513.11;1804569;79;21058;-78
2022/11/25 04:22:48;;;;;;;20.57;15.23;;;;;;;1.96;100.00;99517.09;1828971;77;21017;-74
2022/11/25 04:25:15;;;;;;;19.42;13.48;;;;;;;1.98;100.00;99514.53;1850553;77;21002;-75
2022/11/25 04:27:42;;;;;;;20.12;14.98;;;;;;;1.96;100.00;99520.56;1776199;79;21374;-77
2022/11/25 04:30:09;;;;;;;19.12;15.30;;;;;;;1.94;100.00;99515.13;1815939;79;21123;-75
2022/11/25 04:32:38;;;;;;;19.87;13.88;;;;;;;1.92;100.00;99515.32;1806633;77;21027;-75
2022/11/25 04:35:06;;;;;;;20.23;14.53;;;;;;;1.90;100.00;99526.66;1787667;78;21088;-76
2022/11/25 04:37:33;;;;;;;16.27;13.43;;;;;;;1.91;100.00;99518.19;1815907;77;21021;-76
2022/11/25 04:40:00;;;;;;;22.32;14.47;;;;;;;1.88;100.00;99519.39;1815429;77;20998;-75
2022/11/25 04:42:31;;;;;;;21.80;13.55;;;;;;;1.89;100.00;99518.38;1851013;77;20979;-75
2022/11/25 04:44:59;;;;;;;20.05;14.53;;;;;;;1.94;100.00;99522.58;1845562;77;20956;-76
2022/11/25 04:47:28;;;;;;;21.25;13.10;;;;;;;1.99;100.00;99525.97;1798350;79;21066;-77
2022/11/25 04:49:55;;;;;;;18.67;13.03;;;;;;;1.99;100.00;99529.44;1798822;79;21035;-77
2022/11/25 04:52:22;;;;;;;18.12;12.73;;;;;;;1.93;100.00;99525.42;1824616;77;21254;-76
2022/11/25 04:54:49;;;;;;;22.00;13.88;;;;;;;1.89;100.00;99532.14;1845423;77;21090;-77
2022/11/25 04:57:18;;;;;;;18.30;12.53;;;;;;;1.87;100.00;99525.70;1805917;77;20984;-78
2022/11/25 04:59:45;;;;;;;17.48;13.25;;;;;;;1.84;100.00;99528.77;1829766;78;20921;-77
2022/11/25 05:02:19;;;;;;;19.60;13.55;;;;;;;1.86;100.00;99533.38;1846734;77;21030;-76
2022/11/25 05:04:59;;;;;;;18.02;12.35;;;;;;;1.91;100.00;99538.91;1854372;77;21123;-75
2022/11/25 05:07:28;;;;;;;17.35;12.25;;;;;;;1.90;100.00;99541.23;1808414;77;21062;-75
2022/11/25 05:09:55;;;;;;;23.45;12.98;;;;;;;1.90;100.00;99542.56;1830486;78;21640;-76
2022/11/25 05:12:37;;;;;;;19.75;14.03;;;;;;;1.83;100.00;99544.86;1813412;78;20954;-76
2022/11/25 05:15:06;;;;;;;17.02;12.88;;;;;;;1.73;100.00;99555.82;1828237;78;21042;-77
2022/11/25 05:17:37;;;;;;;19.73;12.28;;;;;;;1.69;100.00;99555.41;1820182;77;20950;-76
2022/11/25 05:20:06;;;;;;;17.02;11.15;;;;;;;1.66;100.00;99560.28;1821535;77;21077;-79
2022/11/25 05:22:34;;;;;;;20.05;13.28;;;;;;;1.63;100.00;99560.69;1856255;77;20938;-78
2022/11/25 05:25:01;;;;;;;20.08;13.08;;;;;;;1.66;100.00;99558.45;1800103;77;20960;-79
2022/11/25 05:27:29;;;;;;;17.50;13.53;;;;;;;1.66;100.00;99567.73;1781502;79;21091;-78
2022/11/25 05:29:57;;;;;;;18.17;13.08;;;;;;;1.68;100.00;99573.64;1809975;77;22148;-79
2022/11/25 05:32:24;;;;;;;15.58;11.75;;;;;;;1.70;100.00;99577.44;1824214;77;20905;-77
2022/11/25 05:34:53;;;;;;;17.65;12.45;;;;;;;1.66;100.00;99575.69;1812939;77;21021;-79
2022/11/25 05:37:19;;;;;;;14.78;11.33;;;;;;;1.60;100.00;99570.33;1809333;79;21034;-78
2022/11/25 05:39:48;;;;;;;16.30;11.95;;;;;;;1.60;100.00;99573.81;1809594;77;21560;-74
2022/11/25 05:42:34;;;;;;;21.80;15.53;;;;;;;1.61;100.00;99577.28;1792844;78;22173;-75
2022/11/25 05:45:03;;;;;;;18.15;14.58;;;;;;;1.61;100.00;99578.10;1792145;79;21600;-75
2022/11/25 05:47:31;;;;;;;22.75;13.80;;;;;;;1.65;100.00;99585.97;1788495;79;21032;-75
2022/11/25 05:49:58;;;;;;;21.68;16.35;;;;;;;1.64;100.00;99590.95;1814518;79;21051;-77
2022/11/25 05:52:25;;;;;;;18.92;13.03;;;;;;;1.64;100.00;99600.73;1814920;78;21022;-82
2022/11/25 05:54:54;;;;;;;18.10;12.58;;;;;;;1.59;100.00;99604.47;1836651;77;21187;-76
2022/11/25 05:57:21;;;;;;;18.37;12.53;;;;;;;1.54;100.00;99609.53;1819128;77;21337;-76
2022/11/25 05:59:49;;;;;;;19.98;13.25;;;;;;;1.54;100.00;99609.53;1813285;79;21008;-75
2022/11/25 06:02:21;;;;;;;22.05;15.58;;;;;;;1.58;100.00;99618.23;1824426;77;21008;-76
2022/11/25 06:04:50;;;;;;;25.88;15.75;;;;;;;1.71;100.00;99622.31;1805084;78;21055;-74
2022/11/25 06:07:18;;;;;;;26.82;15.98;;;;;;;1.67;100.00;99626.38;1803100;78;21141;-77
2022/11/25 06:09:44;;;;;;;32.45;15.65;;;;;;;1.65;100.00;99634.19;1821602;77;20907;-75
2022/11/25 06:12:11;;;;;;;27.93;17.62;;;;;;;1.64;100.00;99629.89;1827174;77;21096;-75
2022/11/25 06:14:41;;;;;;;18.50;14.15;;;;;;;1.67;100.00;99633.50;1825353;77;21037;-75
2022/11/25 06:17:08;;;;;;;22.22;14.05;;;;;;;1.73;100.00;99630.87;1828515;78;21035;-74
2022/11/25 06:19:37;;;;;;;24.05;15.55;;;;;;;1.81;100.00;99639.20;1830189;77;21167;-74
2022/11/25 06:22:04;;;;;;;25.15;12.50;;;;;;;1.87;100.00;99637.07;1797079;78;20978;-78
2022/11/25 06:24:32;;;;;;;26.10;16.45;;;;;;;1.92;100.00;99645.80;1831397;78;20955;-76
2022/11/25 06:27:01;;;;;;;22.80;14.85;;;;;;;1.86;100.00;99633.31;1828216;77;21015;-75
2022/11/25 06:29:27;;;;;;;20.65;13.62;;;;;;;1.83;100.00;99642.96;1830680;77;21055;-74
2022/11/25 06:31:54;;;;;;;25.15;15.05;;;;;;;1.87;100.00;99638.39;1829708;77;21151;-75
2022/11/25 06:34:24;;;;;;;25.32;16.12;;;;;;;1.90;100.00;99639.35;1811065;78;21125;-78
2022/11/25 06:36:51;;;;;;;26.20;14.47;;;;;;;1.94;100.00;99639.77;1807849;79;21584;-75
2022/11/25 06:39:17;;;;;;;28.95;14.55;;;;;;;1.93;100.00;99636.80;1806401;78;20960;-73
2022/11/25 06:41:46;;;;;;;18.82;11.40;;;;;;;1.95;100.00;99639.59;1790720;77;21010;-75
2022/11/25 06:44:13;;;;;;;25.10;15.43;;;;;;;1.94;100.00;99637.12;1812076;78;21209;-78
2022/11/25 06:46:40;;;;;;;19.73;13.75;;;;;;;1.91;100.00;99636.20;1778007;79;21008;-76
2022/11/25 06:49:09;;;;;;;19.32;14.03;;;;;;;1.90;100.00;99641.18;1806367;78;21527;-74
2022/11/25 06:51:35;;;;;;;25.48;17.90;;;;;;;1.85;100.00;99644.92;1807916;78;21071;-75
2022/11/25 06:54:03;;;;;;;28.80;17.17;;;;;;;1.82;100.00;99646.65;1823103;77;21090;-75
2022/11/25 06:56:30;;;;;;;27.35;15.40;;;;;;;1.82;100.00;99644.81;1855216;77;21039;-78
2022/11/25 06:58:57;;;;;;;27.45;16.32;;;;;;;1.79;100.00;99648.34;1825809;77;21016;-77
2022/11/25 07:01:27;;;;;;;28.02;15.48;;;;;;;1.78;100.00;99652.82;1812805;79;21030;-74
2022/11/25 07:04:02;;;;;;;23.73;14.40;;;;;;;1.79;100.00;99653.14;1813494;78;21002;-75
2022/11/25 07:06:30;;;;;;;22.42;13.15;;;;;;;1.74;100.00;99659.02;1782166;79;21035;-75
2022/11/25 07:08:56;;;;;;;29.45;17.20;;;;;;;1.77;100.00;99664.97;1812369;79;21109;-77
2022/11/25 07:11:28;;;;;;;22.75;13.65;;;;;;;1.78;100.00;99666.08;1812962;79;21531;-75
2022/11/25 07:13:59;;;;;;;28.47;19.17;;;;;;;1.78;100.00;99665.26;1815298;77;20948;-73
2022/11/25 07:16:27;;;;;;;23.75;16.70;;;;;;;1.74;100.00;99669.63;1810667;79;21603;-76
2022/11/25 07:18:55;;;;;;;26.10;16.73;;;;;;;1.82;100.00;99675.31;1794872;79;21012;-76
2022/11/25 07:21:23;;;;;;;25.45;16.40;;;;;;;1.86;100.00;99675.23;1828822;78;21541;-77
2022/11/25 07:23:51;;;;;;;27.20;15.78;;;;;;;1.92;100.00;99680.27;1802495;78;21600;-74
2022/11/25 07:26:20;;;;;;;30.17;18.25;;;;;;;1.87;100.00;99687.98;1797301;79;20957;-75
2022/11/25 07:28:50;;;;;;;29.42;17.65;;;;;;;1.78;100.00;99683.81;1805345;78;21002;-75
2022/11/25 07:31:26;;;;;;;32.00;20.02;;;;;;;1.74;100.00;99692.16;1809194;78;22125;-74
2022/11/25 07:34:01;;;;;;;25.88;16.15;;;;;;;1.77;100.00;99700.25;1808051;79;21268;-77
2022/11/25 07:36:27;;;;;;;25.68;16.25;;;;;;;1.82;100.00;99699.17;1813089;79;20962;-74
2022/11/25 07:38:54;;;;;;;26.65;15.70;;;;;;;1.81;100.00;99704.66;1783963;79;21567;-78
2022/11/25 07:41:23;;;;;;;43.68;28.00;;;;;;;1.84;100.00;99709.06;1800370;78;21453;-76
2022/11/25 07:43:54;;;;;;;48.10;30.90;;;;;;;1.86;100.00;99715.00;1821032;78;21037;-78
2022/11/25 07:46:39;;;;;;;40.88;23.92;;;;;;;1.80;100.00;99715.77;1820600;78;21095;-77
2022/11/25 07:49:10;;;;;;;40.25;24.55;;;;;;;1.75;100.00;99718.17;1819150;78;21074;-74
2022/11/25 07:51:40;;;;;;;46.65;29.50;;;;;;;1.75;100.00;99721.65;1824179;77;20959;-74
2022/11/25 07:54:09;;;;;;;44.08;27.50;;;;;;;1.83;100.00;99728.63;1841960;77;21057;-76
2022/11/25 07:56:39;;;;;;;34.75;21.35;;;;;;;1.86;100.00;99724.79;1819200;77;21644;-76
2022/11/25 07:59:07;;;;;;;29.12;20.68;;;;;;;1.90;100.00;99718.91;1814663;78;21133;-76
2022/11/25 08:01:33;;;;;;;36.28;22.20;;;;;;;1.95;100.00;99719.14;1788237;78;20989;-77
2022/11/25 08:04:00;;;;;;;34.83;20.32;;;;;;;1.94;100.00;99725.96;1817856;78;20950;-78
2022/11/25 08:06:28;;;;;;;32.30;19.92;;;;;;;1.93;100.00;99722.98;1818698;78;21049;-77
2022/11/25 08:08:57;;;;;;;26.10;16.62;;;;;;;1.94;100.00;99727.28;1812942;78;21039;-76
2022/11/25 08:11:26;;;;;;;28.75;17.60;;;;;;;1.91;100.00;99723.70;1831770;77;21236;-77
2022/11/25 08:13:53;;;;;;;27.42;17.42;;;;;;;1.88;100.00;99724.89;1840031;77;21274;-76
2022/11/25 08:16:25;;;;;;;33.88;20.30;;;;;;;1.94;100.00;99726.78;1840292;77;21075;-76
2022/11/25 08:18:52;;;;;;;27.73;18.45;;;;;;;1.99;100.00;99725.70;1828355;77;21650;-75
2022/11/25 08:21:19;;;;;;;28.98;20.00;;;;;;;1.95;100.00;99724.95;1829674;77;21038;-75
2022/11/25 08:23:47;;;;;;;41.40;25.68;;;;;;;1.91;100.00;99729.02;1809948;79;20917;-74
2022/11/25 08:26:21;;;;;;;39.98;26.73;;;;;;;1.90;100.00;99721.55;1809714;79;20956;-74
2022/11/25 08:28:48;;;;;;;32.42;19.02;;;;;;;1.91;100.00;99721.88;1804285;79;20951;-75
2022/11/25 08:31:22;;;;;;;33.42;22.67;;;;;;;1.95;100.00;99724.95;1807255;78;20931;-72
2022/11/25 08:33:48;;;;;;;38.05;23.52;;;;;;;1.94;100.00;99722.80;1780789;80;20991;-75
2022/11/25 08:36:15;;;;;;;33.50;20.68;;;;;;;1.97;100.00;99722.41;1797167;77;21119;-72
2022/11/25 08:38:45;;;;;;;41.18;22.98;;;;;;;1.98;100.00;99732.52;1837539;77;20946;-73
2022/11/25 08:41:21;;;;;;;33.48;20.08;;;;;;;1.96;100.00;99728.75;1827647;78;20999;-75
2022/11/25 08:43:47;;;;;;;29.85;18.70;;;;;;;1.93;100.00;99729.12;1795173;79;20989;-73
2022/11/25 08:46:19;;;;;;;28.52;16.30;;;;;;;1.92;100.00;99735.95;1812594;78;21007;-74
2022/11/25 08:48:46;;;;;;;25.55;14.80;;;;;;;1.80;100.00;99737.48;1824595;77;21192;-76
2022/11/25 08:51:17;;;;;;;27.15;15.93;;;;;;;1.79;100.00;99739.31;1830650;77;20993;-75
2022/11/25 08:53:44;;;;;;;30.17;17.80;;;;;;;1.78;100.00;99732.86;1856900;77;21001;-72
2022/11/25 08:56:11;;;;;;;27.32;16.50;;;;;;;1.79;100.00;99737.16;1830734;77;21607;-72
2022/11/25 08:58:37;;;;;;;27.85;16.40;;;;;;;1.86;100.00;99737.55;1822131;77;21192;-74
2022/11/25 09:01:07;;;;;;;36.33;21.35;;;;;;;1.84;100.00;99736.91;1817612;77;21012;-75
2022/11/25 09:03:36;;;;;;;39.15;22.62;;;;;;;1.79;100.00;99734.00;1818386;78;21025;-75
2022/11/25 09:06:03;;;;;;;29.75;18.25;;;;;;;1.79;100.00;99735.84;1819048;78;20948;-73
2022/11/25 09:08:30;;;;;;;23.35;12.82;;;;;;;1.80;100.00;99735.66;1788159;77;21552;-74
2022/11/25 09:10:57;;;;;;;29.75;16.90;;;;;;;1.84;100.00;99730.78;1837064;77;21050;-73
2022/11/25 09:13:24;;;;;;;28.77;17.67;;;;;;;1.81;100.00;99736.48;1822641;77;21098;-73
2022/11/25 09:15:53;;;;;;;37.23;26.77;;;;;;;1.75;100.00;99732.25;1807978;79;20966;-76
2022/11/25 09:18:24;;;;;;;37.07;26.37;;;;;;;1.74;100.00;99730.61;1789225;78;21082;-75
2022/11/25 09:20:48;;;;;;;38.38;29.50;;;;;;;1.77;100.00;99733.40;1825400;77;20954;-75
2022/11/25 09:23:15;;;;;;;36.58;22.95;;;;;;;1.83;100.00;99735.76;1812681;79;21215;-75
2022/11/25 09:25:41;;;;;;;41.63;31.02;;;;;;;1.85;100.00;99739.88;1819066;78;21292;-75
2022/11/25 09:28:08;;;;;;;30.68;23.65;;;;;;;1.87;100.00;99743.14;1816430;77;20927;-75
2022/11/25 09:30:36;;;;;;;33.58;22.27;;;;;;;1.93;100.00;99744.20;1812149;77;21026;-74
2022/11/25 09:33:03;;;;;;;30.90;22.07;;;;;;;1.87;100.00;99742.34;1847356;77;21053;-76
2022/11/25 09:35:29;;;;;;;30.57;18.15;;;;;;;1.89;100.00;99743.78;1835304;77;22185;-76
2022/11/25 09:37:56;;;;;;;23.98;16.48;;;;;;;1.90;100.00;99741.45;1811310;76;21753;-76
2022/11/25 09:40:43;;;;;;;24.80;16.02;;;;;;;1.90;100.00;99744.60;1853568;77;21047;-78
2022/11/25 09:46:57;;;;;;;30.35;17.25;;;;;;;1.86;100.00;99744.67;1789290;79;21036;-76
2022/11/25 09:49:41;;;;;;;21.50;13.28;;;;;;;1.87;100.00;99743.14;1790942;78;49676;-73
2022/11/25 09:52:38;;;;;;;28.52;16.85;;;;;;;1.94;100.00;99741.87;1803208;79;21813;-75
2022/11/25 09:55:14;;;;;;;21.12;12.60;;;;;;;1.98;100.00;99741.80;1765063;81;21558;-72
2022/11/25 09:58:16;;;;;;;28.00;15.03;;;;;;;1.97;100.00;99738.32;1790228;80;21107;-76
2022/11/25 10:00:47;;;;;;;22.80;14.55;;;;;;;1.89;100.00;99742.45;1788096;80;21381;-75
2022/11/25 10:03:40;;;;;;;25.80;15.65;;;;;;;1.86;100.00;99748.66;1800717;78;21085;-74
2022/11/25 10:06:16;;;;;;;23.35;14.03;;;;;;;1.77;100.00;99742.67;1782035;78;21053;-77
2022/11/25 10:08:56;;;;;;;25.00;14.25;;;;;;;1.79;100.00;99741.14;1787168;80;21011;-77
2022/11/25 14:46:21;;;;;;;17.77;12.00;;;;;;;0.84;100.00;99848.65;1781971;77;22696;-69
2022/11/25 14:48:55;;;;;;;31.45;16.30;;;;;;;0.87;100.00;99853.06;1763327;80;21059;-77
2022/11/25 14:51:25;;;;;;;15.30;9.53;;;;;;;0.93;100.00;99845.40;1788759;79;20925;-70
2022/11/25 14:53:53;;;;;;;21.93;12.93;;;;;;;0.91;100.00;99854.87;1754890;80;21008;-70
2022/11/25 14:56:33;;;;;;;26.12;14.65;;;;;;;0.96;100.00;99857.76;1724374;81;21019;-71
2022/11/25 14:59:01;;;;;;;19.95;11.18;;;;;;;0.99;100.00;99860.56;1725479;81;21029;-72
2022/11/25 15:01:32;;;;;;;28.10;16.30;;;;;;;1.02;100.00;99860.18;1735775;81;21024;-70
2022/11/25 15:04:17;;;;;;;20.97;12.45;;;;;;;1.02;100.00;99862.33;1736064;81;21183;-72
2022/11/25 15:06:55;;;;;;;22.35;11.63;;;;;;;1.07;100.00;99857.80;1726086;81;21079;-71
2022/11/25 15:09:31;;;;;;;24.23;14.10;;;;;;;1.09;100.00;99860.60;1724489;83;20956;-72
2022/11/25 15:12:03;;;;;;;16.10;9.55;;;;;;;1.16;100.00;99858.84;1703528;83;21023;-72
2022/11/25 15:14:35;;;;;;;13.48;9.48;;;;;;;1.20;100.00;99867.27;1725012;83;20937;-70
2022/11/25 15:17:07;;;;;;;23.45;12.15;;;;;;;1.21;100.00;99871.53;1724417;83;22304;-72
2022/11/25 15:19:34;;;;;;;19.73;10.15;;;;;;;1.21;100.00;99868.38;1724598;83;21048;-72
2022/11/25 15:22:03;;;;;;;16.25;8.98;;;;;;;1.21;100.00;99871.53;1724816;82;21105;-71
2022/11/25 15:24:44;;;;;;;16.73;10.00;;;;;;;1.28;100.00;99878.56;1724998;83;22280;-70
2022/11/25 15:27:24;;;;;;;16.55;9.90;;;;;;;1.29;100.00;99884.69;1725063;83;21027;-72
2022/11/25 15:29:53;;;;;;;11.12;8.48;;;;;;;1.30;100.00;99886.30;1724858;83;21802;-71
2022/11/25 15:32:30;;;;;;;13.53;9.28;;;;;;;1.35;100.00;99883.92;1724671;82;21233;-70
2022/11/25 15:34:59;;;;;;;17.02;9.18;;;;;;;1.41;100.00;99887.16;1724773;83;21041;-71
2022/11/25 15:37:25;;;;;;;9.55;7.60;;;;;;;1.43;100.00;99892.29;1724925;83;21548;-71
2022/11/25 15:40:43;;;;;;;19.90;9.50;;;;;;;1.48;100.00;99896.53;1725230;83;21079;-73
2022/11/25 15:43:26;;;;;;;12.37;7.75;;;;;;;1.49;100.00;99892.34;1724363;83;22021;-72
2022/11/25 15:46:00;;;;;;;10.20;7.75;;;;;;;1.49;100.00;99888.38;1724684;82;21537;-72
2022/11/25 15:48:40;;;;;;;11.30;7.67;;;;;;;1.56;100.00;99894.58;1724828;83;20980;-71
2022/11/25 15:51:38;;;;;;;10.35;7.65;;;;;;;1.63;100.00;99892.81;1723644;83;21088;-72
2022/11/25 15:54:14;;;;;;;13.25;7.70;;;;;;;1.60;100.00;99890.55;1724831;82;21055;-71
2022/11/25 15:56:49;;;;;;;14.43;9.75;;;;;;;1.61;100.00;99887.39;1724576;83;21019;-71
2022/11/25 15:59:40;;;;;;;12.80;8.68;;;;;;;1.61;100.00;99886.89;1724060;83;21595;-73
2022/11/25 16:02:44;;;;;;;8.98;7.55;;;;;;;1.59;100.00;99878.80;1704165;83;21029;-70
2022/11/25 16:05:27;;;;;;;11.78;7.78;;;;;;;1.53;100.00;99884.37;1724151;83;21061;-72
2022/11/25 16:08:19;;;;;;;10.00;7.40;;;;;;;1.46;100.00;99883.45;1693705;83;21180;-72
2022/11/25 16:10:52;;;;;;;11.25;7.85;;;;;;;1.49;100.00;99883.58;1724344;83;21300;-74
2022/11/25 16:13:29;;;;;;;13.22;8.50;;;;;;;1.45;100.00;99885.78;1724253;83;21611;-71
2022/11/25 16:16:22;;;;;;;17.40;10.15;;;;;;;1.50;100.00;99886.05;1724254;83;21015;-71
2022/11/25 16:19:15;;;;;;;15.65;10.25;;;;;;;1.55;100.00;99889.45;1724018;83;21544;-74